createdAt,value
2017-08-07T00:00:04.220Z,18.20
2017-08-07T00:02:33.276Z,18.00
2017-08-07T00:05:01.512Z,17.90
2017-08-07T00:07:29.838Z,17.80
2017-08-07T00:09:58.088Z,17.90
2017-08-07T00:12:26.352Z,17.90
2017-08-07T00:14:54.641Z,17.80
2017-08-07T00:17:22.893Z,17.80
2017-08-07T00:19:53.595Z,17.50
2017-08-07T00:22:21.872Z,17.60
2017-08-07T00:24:50.122Z,17.70
2017-08-07T00:27:18.383Z,17.90
2017-08-07T00:29:46.778Z,17.70
2017-08-07T00:32:15.075Z,17.70
2017-08-07T00:34:43.378Z,17.60
2017-08-07T00:37:12.403Z,17.80
2017-08-07T00:39:40.691Z,17.50
2017-08-07T00:42:08.964Z,17.40
2017-08-07T00:44:37.248Z,17.60
2017-08-07T00:47:05.525Z,17.40
2017-08-07T00:49:33.824Z,17.80
2017-08-07T00:52:02.102Z,17.80
2017-08-07T00:54:30.364Z,17.70
2017-08-07T00:56:58.678Z,17.50
2017-08-07T00:59:27.723Z,17.30
2017-08-07T01:01:55.969Z,17.50
2017-08-07T01:04:24.266Z,17.40
2017-08-07T01:06:52.650Z,17.50
2017-08-07T01:09:20.904Z,17.20
2017-08-07T01:11:49.952Z,17.30
2017-08-07T01:14:18.200Z,17.30
2017-08-07T01:16:46.635Z,17.40
2017-08-07T01:19:15.660Z,17.20
2017-08-07T01:21:43.963Z,17.20
2017-08-07T01:24:12.204Z,17.50
2017-08-07T01:26:40.538Z,17.00
2017-08-07T01:29:08.832Z,17.10
2017-08-07T01:31:37.851Z,16.90
2017-08-07T01:34:06.106Z,17.10
2017-08-07T01:36:34.397Z,16.90
2017-08-07T01:39:03.423Z,17.00
2017-08-07T01:41:31.705Z,17.10
2017-08-07T01:43:59.951Z,16.80
2017-08-07T01:46:28.428Z,16.80
2017-08-07T01:48:56.799Z,17.00
2017-08-07T01:51:25.826Z,16.90
2017-08-07T01:53:54.092Z,16.80
2017-08-07T01:56:22.343Z,17.00
2017-08-07T01:58:51.379Z,17.00
2017-08-07T02:01:19.671Z,16.90
2017-08-07T02:03:48.747Z,16.90
2017-08-07T02:06:16.993Z,17.00
2017-08-07T02:08:46.112Z,17.00
2017-08-07T02:11:14.388Z,16.80
2017-08-07T02:13:42.655Z,16.80
2017-08-07T02:16:10.931Z,16.80
2017-08-07T02:18:39.182Z,16.70
2017-08-07T02:21:08.239Z,16.80
2017-08-07T02:23:36.506Z,16.80
2017-08-07T02:26:04.771Z,16.80
2017-08-07T02:28:33.047Z,16.60
2017-08-07T02:31:01.303Z,16.70
2017-08-07T02:33:29.559Z,17.00
2017-08-07T02:35:57.908Z,16.50
2017-08-07T02:38:26.187Z,16.50
2017-08-07T02:40:54.492Z,16.80
2017-08-07T02:43:22.749Z,16.80
2017-08-07T02:45:51.036Z,16.50
2017-08-07T02:48:19.267Z,16.60
2017-08-07T02:50:47.519Z,16.40
2017-08-07T02:53:15.784Z,16.50
2017-08-07T02:55:44.060Z,16.50
2017-08-07T02:58:12.334Z,16.50
2017-08-07T03:00:40.599Z,16.40
2017-08-07T03:03:09.630Z,16.60
2017-08-07T03:05:37.895Z,16.40
2017-08-07T03:08:06.142Z,16.60
2017-08-07T03:10:35.653Z,16.50
2017-08-07T03:13:04.662Z,16.30
2017-08-07T03:15:32.945Z,16.30
2017-08-07T03:18:01.243Z,16.50
2017-08-07T03:20:29.513Z,16.30
2017-08-07T03:22:57.757Z,16.40
2017-08-07T03:25:26.935Z,16.40
2017-08-07T03:27:55.221Z,16.40
2017-08-07T03:30:24.236Z,16.30
2017-08-07T03:32:52.472Z,16.30
2017-08-07T03:35:20.729Z,16.30
2017-08-07T03:37:49.068Z,16.40
2017-08-07T03:40:17.324Z,16.10
2017-08-07T03:42:45.602Z,16.20
2017-08-07T03:45:14.628Z,16.40
2017-08-07T03:47:42.899Z,16.20
2017-08-07T03:50:11.150Z,15.90
2017-08-07T03:52:39.436Z,16.30
2017-08-07T03:55:07.788Z,16.00
2017-08-07T03:57:36.088Z,16.20
2017-08-07T04:00:05.184Z,16.10
2017-08-07T04:02:33.460Z,16.30
2017-08-07T04:05:02.493Z,16.30
2017-08-07T04:07:30.722Z,16.20
2017-08-07T04:09:59.729Z,16.00
2017-08-07T04:12:27.991Z,16.10
2017-08-07T04:14:57.012Z,15.90
2017-08-07T04:17:25.298Z,16.20
2017-08-07T04:19:53.576Z,16.20
2017-08-07T04:22:21.841Z,16.10
2017-08-07T04:24:50.104Z,16.10
2017-08-07T04:27:18.378Z,16.10
2017-08-07T04:29:46.634Z,16.20
2017-08-07T04:32:14.909Z,16.00
2017-08-07T04:34:43.928Z,16.10
2017-08-07T04:37:12.223Z,16.20
2017-08-07T04:39:40.449Z,15.80
2017-08-07T04:42:08.803Z,15.90
2017-08-07T04:44:37.071Z,16.10
2017-08-07T04:47:05.328Z,15.90
2017-08-07T04:49:33.639Z,16.10
2017-08-07T04:52:02.003Z,15.90
2017-08-07T04:54:30.237Z,15.90
2017-08-07T04:56:58.486Z,16.00
2017-08-07T04:59:26.753Z,15.90
2017-08-07T05:01:55.002Z,16.10
2017-08-07T05:04:23.261Z,16.20
2017-08-07T05:06:51.510Z,16.40
2017-08-07T05:09:19.803Z,16.40
2017-08-07T05:11:48.147Z,16.30
2017-08-07T05:14:16.371Z,16.20
2017-08-07T05:16:44.636Z,16.40
2017-08-07T05:19:12.874Z,16.60
2017-08-07T05:21:41.917Z,16.40
2017-08-07T05:24:15.975Z,16.40
2017-08-07T05:26:44.233Z,16.30
2017-08-07T05:29:12.479Z,16.30
2017-08-07T05:31:40.726Z,16.40
2017-08-07T05:34:09.801Z,16.40
2017-08-07T05:36:38.059Z,16.50
2017-08-07T05:39:06.288Z,16.70
2017-08-07T05:41:34.630Z,16.60
2017-08-07T05:44:02.914Z,16.70
2017-08-07T05:46:31.934Z,16.80
2017-08-07T05:49:00.201Z,16.60
2017-08-07T05:51:28.452Z,16.80
2017-08-07T05:53:56.705Z,16.80
2017-08-07T05:56:24.978Z,16.90
2017-08-07T05:58:53.283Z,16.70
2017-08-07T06:01:21.603Z,17.20
2017-08-07T06:03:49.843Z,17.30
2017-08-07T06:06:18.885Z,17.20
2017-08-07T06:08:47.166Z,17.10
2017-08-07T06:11:15.432Z,17.40
2017-08-07T06:13:43.816Z,17.40
2017-08-07T06:16:12.095Z,17.40
2017-08-07T06:18:40.343Z,17.60
2017-08-07T06:21:08.618Z,17.70
2017-08-07T06:23:36.880Z,17.40
2017-08-07T06:26:05.884Z,17.60
2017-08-07T06:28:35.239Z,17.90
2017-08-07T06:31:04.272Z,17.80
2017-08-07T06:33:35.041Z,18.00
2017-08-07T06:36:03.278Z,17.80
2017-08-07T06:38:31.558Z,18.00
2017-08-07T06:41:00.592Z,18.00
2017-08-07T06:43:28.849Z,18.00
2017-08-07T06:45:57.173Z,17.90
2017-08-07T06:48:25.428Z,18.30
2017-08-07T06:50:53.685Z,18.10
2017-08-07T06:53:22.075Z,18.60
2017-08-07T06:55:50.296Z,18.80
2017-08-07T06:58:19.395Z,18.70
2017-08-07T07:00:48.290Z,18.80
2017-08-07T07:03:17.299Z,18.70
2017-08-07T07:05:45.571Z,18.80
2017-08-07T07:08:14.688Z,19.10
2017-08-07T07:10:42.947Z,19.10
2017-08-07T07:13:11.967Z,19.30
2017-08-07T07:15:40.195Z,19.20
2017-08-07T07:18:09.239Z,19.50
2017-08-07T07:20:37.503Z,19.10
2017-08-07T07:23:06.483Z,19.60
2017-08-07T07:25:34.808Z,19.40
2017-08-07T07:28:03.030Z,19.60
2017-08-07T07:30:35.305Z,19.70
2017-08-07T07:33:03.567Z,19.90
2017-08-07T07:35:32.574Z,19.90
2017-08-07T07:38:00.848Z,19.80
2017-08-07T07:40:29.119Z,20.00
2017-08-07T07:42:58.143Z,20.20
2017-08-07T07:45:26.448Z,19.70
2017-08-07T07:47:54.698Z,20.20
2017-08-07T07:50:22.935Z,20.30
2017-08-07T07:52:51.972Z,20.30
2017-08-07T07:55:20.217Z,20.50
2017-08-07T07:57:48.571Z,20.40
2017-08-07T08:00:16.835Z,20.70
2017-08-07T08:02:46.046Z,20.80
2017-08-07T08:05:14.409Z,20.80
2017-08-07T08:07:42.655Z,20.90
2017-08-07T08:10:10.946Z,20.50
2017-08-07T08:12:39.217Z,21.00
2017-08-07T08:15:07.541Z,21.00
2017-08-07T08:17:35.831Z,21.10
2017-08-07T08:20:04.099Z,21.20
2017-08-07T08:22:32.478Z,21.20
2017-08-07T08:25:00.735Z,21.30
2017-08-07T08:27:28.996Z,21.40
2017-08-07T08:29:57.282Z,21.50
2017-08-07T08:32:25.553Z,21.50
2017-08-07T08:34:53.825Z,21.70
2017-08-07T08:37:22.094Z,21.70
2017-08-07T08:39:50.362Z,21.80
2017-08-07T08:42:21.139Z,21.90
2017-08-07T08:44:50.061Z,21.90
2017-08-07T08:47:19.224Z,22.00
2017-08-07T08:49:48.330Z,22.10
2017-08-07T08:52:16.595Z,22.10
2017-08-07T08:54:44.830Z,22.20
2017-08-07T08:57:13.853Z,22.40
2017-08-07T08:59:42.185Z,22.40
2017-08-07T09:02:10.470Z,22.50
2017-08-07T09:04:39.473Z,22.60
2017-08-07T09:07:07.787Z,22.60
2017-08-07T09:09:36.051Z,22.60
2017-08-07T09:12:04.387Z,22.70
2017-08-07T09:14:32.666Z,22.70
2017-08-07T09:17:00.913Z,22.80
2017-08-07T09:19:29.155Z,22.80
2017-08-07T09:21:57.435Z,22.70
2017-08-07T09:24:25.691Z,22.70
2017-08-07T09:26:53.976Z,22.80
2017-08-07T09:29:22.283Z,22.90
2017-08-07T09:31:50.541Z,23.00
2017-08-07T09:34:18.854Z,23.10
2017-08-07T09:36:47.109Z,23.10
2017-08-07T09:39:15.377Z,23.20
2017-08-07T09:41:43.636Z,23.30
2017-08-07T09:44:11.992Z,23.40
2017-08-07T09:46:41.030Z,23.50
2017-08-07T09:49:09.312Z,23.50
2017-08-07T09:51:37.730Z,23.60
2017-08-07T09:54:06.739Z,23.60
2017-08-07T09:56:35.017Z,23.60
2017-08-07T09:59:03.269Z,23.50
2017-08-07T10:01:31.706Z,23.50
2017-08-07T10:03:59.988Z,23.60
2017-08-07T10:06:28.251Z,23.70
2017-08-07T10:08:56.520Z,23.70
2017-08-07T10:11:24.779Z,23.70
2017-08-07T10:13:53.856Z,23.70
2017-08-07T10:16:22.090Z,23.60
2017-08-07T10:18:50.340Z,23.70
2017-08-07T10:21:18.684Z,23.80
2017-08-07T10:23:46.966Z,23.80
2017-08-07T10:26:15.241Z,24.00
2017-08-07T10:28:44.327Z,24.20
2017-08-07T10:31:12.589Z,24.20
2017-08-07T10:33:41.689Z,24.30
2017-08-07T10:36:10.003Z,24.30
2017-08-07T10:38:39.052Z,24.50
2017-08-07T10:41:07.338Z,24.50
2017-08-07T10:43:35.624Z,24.60
2017-08-07T10:46:04.938Z,24.60
2017-08-07T10:48:33.156Z,24.70
2017-08-07T10:51:07.400Z,24.80
2017-08-07T10:53:35.663Z,24.80
2017-08-07T10:56:03.903Z,24.70
2017-08-07T10:58:32.174Z,24.70
2017-08-07T11:01:00.432Z,24.70
2017-08-07T11:03:29.437Z,24.70
2017-08-07T11:05:58.481Z,24.90
2017-08-07T11:08:26.767Z,24.80
2017-08-07T11:10:55.068Z,25.00
2017-08-07T11:13:24.091Z,25.20
2017-08-07T11:15:52.378Z,25.20
2017-08-07T11:18:20.661Z,25.20
2017-08-07T11:20:48.915Z,25.30
2017-08-07T11:23:17.974Z,25.40
2017-08-07T11:25:47.048Z,25.50
2017-08-07T11:28:15.333Z,25.50
2017-08-07T11:30:43.597Z,25.50
2017-08-07T11:33:11.990Z,25.50
2017-08-07T11:35:40.281Z,25.50
2017-08-07T11:38:08.670Z,25.50
2017-08-07T11:40:36.947Z,25.60
2017-08-07T11:43:05.204Z,25.60
2017-08-07T11:45:34.370Z,25.60
2017-08-07T11:48:02.631Z,25.60
2017-08-07T11:50:30.913Z,25.60
2017-08-07T11:52:59.200Z,25.60
2017-08-07T11:55:27.527Z,25.50
2017-08-07T11:57:55.904Z,25.50
2017-08-07T12:00:24.972Z,25.60
2017-08-07T12:02:53.251Z,25.50
2017-08-07T12:05:21.560Z,25.60
2017-08-07T12:07:49.834Z,25.60
2017-08-07T12:10:18.865Z,25.80
2017-08-07T12:12:47.151Z,25.70
2017-08-07T12:15:15.413Z,25.80
2017-08-07T12:17:43.676Z,25.80
2017-08-07T12:20:12.001Z,25.90
2017-08-07T12:22:40.315Z,26.00
2017-08-07T12:25:08.584Z,25.90
2017-08-07T12:27:36.860Z,25.90
2017-08-07T12:30:05.958Z,26.00
2017-08-07T12:32:34.204Z,26.00
2017-08-07T12:35:02.509Z,26.00
2017-08-07T12:37:30.752Z,26.00
2017-08-07T12:39:59.068Z,26.00
2017-08-07T12:42:27.452Z,26.10
2017-08-07T12:44:55.750Z,26.20
2017-08-07T12:47:24.169Z,26.20
2017-08-07T12:49:52.422Z,26.20
2017-08-07T12:52:20.712Z,26.20
2017-08-07T12:54:48.983Z,26.20
2017-08-07T12:57:17.261Z,26.30
2017-08-07T13:02:46.910Z,26.40
2017-08-07T13:05:15.165Z,26.40
2017-08-07T13:07:43.452Z,26.40
2017-08-07T13:10:11.702Z,26.50
2017-08-07T13:12:39.973Z,26.50
2017-08-07T13:15:08.318Z,26.60
2017-08-07T13:17:36.650Z,26.50
2017-08-07T13:20:04.984Z,26.40
2017-08-07T13:22:34.037Z,26.30
2017-08-07T13:25:02.328Z,26.30
2017-08-07T13:27:30.735Z,26.30
2017-08-07T13:29:59.053Z,26.20
2017-08-07T13:32:27.315Z,26.30
2017-08-07T13:34:55.573Z,26.30
2017-08-07T13:37:24.643Z,26.40
2017-08-07T13:39:52.889Z,26.40
2017-08-07T13:42:21.143Z,26.40
2017-08-07T13:44:49.448Z,26.50
2017-08-07T13:47:17.754Z,26.60
2017-08-07T13:49:46.791Z,26.60
2017-08-07T13:52:15.057Z,26.60
2017-08-07T13:54:43.352Z,26.60
2017-08-07T13:57:11.646Z,26.60
2017-08-07T13:59:39.939Z,26.60
2017-08-07T14:02:08.438Z,26.70
2017-08-07T14:04:36.710Z,26.80
2017-08-07T14:07:04.998Z,26.90
2017-08-07T14:09:34.027Z,26.90
2017-08-07T14:12:02.322Z,26.90
2017-08-07T14:14:30.679Z,26.90
2017-08-07T14:16:59.920Z,26.80
2017-08-07T14:19:28.487Z,26.90
2017-08-07T14:21:56.824Z,26.90
2017-08-07T14:24:25.944Z,27.00
2017-08-07T14:26:54.406Z,27.00
2017-08-07T14:29:23.616Z,27.10
2017-08-07T14:31:52.031Z,27.10
2017-08-07T14:34:20.348Z,27.00
2017-08-07T14:36:48.604Z,26.90
2017-08-07T14:39:16.877Z,27.00
2017-08-07T14:41:45.135Z,26.90
2017-08-07T14:44:14.222Z,26.90
2017-08-07T14:46:42.644Z,27.00
2017-08-07T14:49:10.915Z,27.00
2017-08-07T14:51:39.201Z,27.10
2017-08-07T14:54:07.462Z,27.00
2017-08-07T14:56:35.745Z,27.10
2017-08-07T14:59:04.000Z,27.20
2017-08-07T15:01:33.041Z,27.20
2017-08-07T15:04:01.326Z,27.20
2017-08-07T15:06:29.612Z,27.20
2017-08-07T15:08:57.907Z,27.30
2017-08-07T15:11:26.130Z,27.30
2017-08-07T15:13:54.402Z,27.30
2017-08-07T15:16:22.659Z,27.40
2017-08-07T15:18:50.958Z,27.50
2017-08-07T15:21:19.241Z,27.50
2017-08-07T15:23:47.538Z,27.50
2017-08-07T15:26:15.797Z,27.60
2017-08-07T15:28:44.059Z,27.60
2017-08-07T15:31:12.351Z,27.60
2017-08-07T15:33:40.700Z,27.60
2017-08-07T15:36:09.732Z,27.50
2017-08-07T15:38:37.989Z,27.50
2017-08-07T15:41:06.349Z,27.40
2017-08-07T15:43:34.688Z,27.40
2017-08-07T15:46:03.765Z,27.40
2017-08-07T15:48:33.290Z,27.40
2017-08-07T15:51:01.590Z,27.40
2017-08-07T15:53:30.640Z,27.50
2017-08-07T15:55:58.909Z,27.50
2017-08-07T15:58:27.204Z,27.50
2017-08-07T16:00:55.502Z,27.50
2017-08-07T16:03:23.809Z,27.50
2017-08-07T16:05:52.080Z,27.40
2017-08-07T16:08:20.415Z,27.50
2017-08-07T16:10:48.671Z,27.50
2017-08-07T16:13:16.971Z,27.50
2017-08-07T16:15:45.250Z,27.30
2017-08-07T16:18:13.538Z,27.40
2017-08-07T16:20:41.828Z,27.40
2017-08-07T16:23:10.892Z,27.60
2017-08-07T16:25:39.295Z,27.60
2017-08-07T16:28:07.566Z,27.60
2017-08-07T16:30:36.046Z,27.60
2017-08-07T16:33:04.322Z,27.60
2017-08-07T16:35:32.620Z,27.60
2017-08-07T16:38:01.711Z,27.60
2017-08-07T16:40:30.055Z,27.50
2017-08-07T16:42:58.359Z,27.30
2017-08-07T16:45:27.400Z,27.00
2017-08-07T16:47:55.677Z,27.00
2017-08-07T16:50:24.100Z,27.10
2017-08-07T16:52:52.614Z,27.20
2017-08-07T16:55:21.867Z,27.30
2017-08-07T16:57:50.220Z,27.30
2017-08-07T17:00:18.526Z,27.30
2017-08-07T17:02:46.876Z,27.30
2017-08-07T17:05:15.198Z,27.30
2017-08-07T17:07:43.547Z,27.40
2017-08-07T17:10:11.804Z,27.40
2017-08-07T17:12:40.290Z,27.30
2017-08-07T17:15:08.584Z,27.30
2017-08-07T17:17:36.897Z,27.20
2017-08-07T17:20:05.473Z,27.20
2017-08-07T17:22:33.720Z,27.20
2017-08-07T17:25:02.029Z,27.10
2017-08-07T17:27:31.059Z,27.20
2017-08-07T17:29:59.543Z,27.20
2017-08-07T17:32:27.789Z,27.20
2017-08-07T17:34:56.121Z,27.20
2017-08-07T17:37:24.396Z,27.30
2017-08-07T17:39:53.606Z,27.30
2017-08-07T17:42:22.754Z,27.30
2017-08-07T17:44:52.437Z,27.30
2017-08-07T17:47:20.769Z,27.30
2017-08-07T17:49:49.088Z,27.20
2017-08-07T17:52:19.047Z,27.10
2017-08-07T17:54:47.334Z,27.10
2017-08-07T17:57:15.614Z,27.00
2017-08-07T17:59:43.930Z,27.00
2017-08-07T18:02:12.977Z,26.80
2017-08-07T18:04:41.270Z,26.70
2017-08-07T18:07:09.557Z,26.80
2017-08-07T18:09:37.858Z,26.70
2017-08-07T18:12:06.236Z,26.80
2017-08-07T18:14:35.301Z,26.70
2017-08-07T18:17:03.589Z,26.70
2017-08-07T18:19:31.902Z,26.60
2017-08-07T18:22:00.902Z,26.50
2017-08-07T18:24:29.213Z,26.50
2017-08-07T18:26:57.506Z,26.40
2017-08-07T18:29:25.785Z,26.30
2017-08-07T18:31:54.076Z,26.30
2017-08-07T18:34:23.142Z,26.20
2017-08-07T18:36:51.404Z,26.20
2017-08-07T18:39:19.685Z,26.20
2017-08-07T18:41:48.005Z,26.20
2017-08-07T18:44:17.142Z,26.20
2017-08-07T18:46:45.383Z,26.20
2017-08-07T18:49:14.510Z,26.20
2017-08-07T18:51:42.788Z,26.20
2017-08-07T18:54:11.285Z,26.20
2017-08-07T18:56:39.588Z,26.20
2017-08-07T18:59:08.005Z,26.20
2017-08-07T19:01:36.321Z,26.20
2017-08-07T19:04:04.712Z,26.10
2017-08-07T19:06:33.220Z,26.10
2017-08-07T19:09:01.531Z,26.00
2017-08-07T19:11:29.882Z,26.00
2017-08-07T19:13:58.202Z,26.00
2017-08-07T19:16:26.466Z,25.90
2017-08-07T19:18:54.824Z,25.90
2017-08-07T19:21:23.880Z,25.80
2017-08-07T19:23:52.271Z,25.80
2017-08-07T19:26:20.563Z,25.80
2017-08-07T19:28:48.845Z,25.80
2017-08-07T19:31:17.181Z,25.70
2017-08-07T19:33:45.444Z,25.70
2017-08-07T19:36:13.982Z,25.60
2017-08-07T19:38:42.250Z,25.60
2017-08-07T19:41:10.548Z,25.50
2017-08-07T19:43:38.990Z,25.40
2017-08-07T19:46:07.243Z,25.30
2017-08-07T19:48:35.584Z,25.10
2017-08-07T19:51:04.643Z,24.90
2017-08-07T19:53:32.950Z,24.90
2017-08-07T19:56:01.225Z,24.80
2017-08-07T19:58:30.428Z,24.70
2017-08-07T20:00:59.515Z,24.60
2017-08-07T20:03:28.631Z,24.50
2017-08-07T20:05:56.917Z,24.50
2017-08-07T20:08:25.463Z,24.50
2017-08-07T20:10:53.786Z,24.50
2017-08-07T20:13:22.144Z,24.50
2017-08-07T20:15:51.164Z,24.40
2017-08-07T20:18:19.430Z,24.40
2017-08-07T20:20:47.830Z,24.40
2017-08-07T20:23:16.138Z,24.40
2017-08-07T20:25:45.331Z,24.20
2017-08-07T20:28:13.656Z,24.20
2017-08-07T20:30:41.936Z,24.20
2017-08-07T20:33:11.382Z,24.20
2017-08-07T20:35:39.764Z,24.20
2017-08-07T20:38:08.983Z,24.00
2017-08-07T20:40:37.390Z,24.00
2017-08-07T20:43:05.660Z,24.00
2017-08-07T20:45:33.957Z,24.00
2017-08-07T20:48:02.292Z,24.00
2017-08-07T20:50:30.791Z,24.00
2017-08-07T20:52:59.893Z,24.10
2017-08-07T20:55:28.177Z,24.00
2017-08-07T20:57:56.506Z,24.00
2017-08-07T21:00:24.851Z,24.00
2017-08-07T21:02:53.145Z,24.00
2017-08-07T21:05:21.454Z,23.80
2017-08-07T21:07:50.707Z,23.80
2017-08-07T21:10:19.077Z,23.80
2017-08-07T21:12:48.119Z,23.80
2017-08-07T21:15:16.494Z,23.80
2017-08-07T21:17:44.978Z,23.80
2017-08-07T21:20:13.267Z,23.70
2017-08-07T21:22:41.620Z,23.70
2017-08-07T21:25:09.937Z,23.50
2017-08-07T21:27:38.219Z,23.50
2017-08-07T21:30:06.574Z,23.40
2017-08-07T21:32:34.935Z,23.40
2017-08-07T21:35:03.296Z,23.40
2017-08-07T21:37:31.598Z,23.40
2017-08-07T21:40:00.037Z,23.30
2017-08-07T21:42:29.117Z,23.20
2017-08-07T21:44:58.153Z,23.20
2017-08-07T21:47:26.477Z,23.10
2017-08-07T21:49:55.683Z,23.10
2017-08-07T21:52:24.709Z,22.90
2017-08-07T21:54:53.050Z,22.90
2017-08-07T21:57:21.338Z,22.80
2017-08-07T21:59:49.782Z,22.70
2017-08-07T22:02:18.136Z,22.60
2017-08-07T22:04:46.542Z,22.50
2017-08-07T22:07:14.792Z,22.40
2017-08-07T22:09:43.098Z,22.30
2017-08-07T22:12:11.402Z,22.30
2017-08-07T22:14:39.698Z,22.20
2017-08-07T22:17:08.007Z,22.20
2017-08-07T22:19:36.301Z,22.20
2017-08-07T22:22:04.672Z,22.20
2017-08-07T22:24:33.026Z,22.20
2017-08-07T22:27:01.285Z,22.10
2017-08-07T22:29:29.553Z,22.10
2017-08-07T22:31:58.614Z,21.90
2017-08-07T22:34:26.891Z,21.90
2017-08-07T22:36:55.152Z,21.80
2017-08-07T22:39:29.229Z,21.70
2017-08-07T22:41:58.247Z,21.70
2017-08-07T22:44:26.701Z,21.70
2017-08-07T22:46:55.888Z,21.70
2017-08-07T22:49:24.166Z,21.70
2017-08-07T22:51:53.279Z,21.70
2017-08-07T22:54:21.600Z,21.70
2017-08-07T22:56:50.100Z,21.60
2017-08-07T22:59:18.856Z,21.50
2017-08-07T23:01:47.159Z,21.60
2017-08-07T23:04:16.252Z,21.50
2017-08-07T23:06:45.328Z,21.50
2017-08-07T23:09:13.624Z,21.50
2017-08-07T23:11:42.653Z,21.30
2017-08-07T23:14:10.999Z,21.30
2017-08-07T23:16:39.275Z,21.40
2017-08-07T23:19:07.559Z,21.40
2017-08-07T23:21:36.612Z,21.30
2017-08-07T23:24:05.812Z,21.30
2017-08-07T23:26:34.114Z,21.30
2017-08-07T23:29:02.362Z,21.30
2017-08-07T23:31:30.678Z,21.20
2017-08-07T23:33:59.060Z,21.20
2017-08-07T23:36:28.085Z,21.10
2017-08-07T23:38:56.332Z,21.10
2017-08-07T23:41:25.395Z,21.00
2017-08-07T23:43:54.609Z,20.90
2017-08-07T23:46:23.653Z,20.90
2017-08-07T23:48:51.970Z,20.90
2017-08-07T23:51:20.698Z,20.90
2017-08-07T23:53:48.948Z,20.90
2017-08-07T23:56:17.235Z,20.90
2017-08-07T23:58:46.266Z,20.90
